sensor_id;sensor_type;location;lat;lon;timestamp;temperature;humidity
56044;DHT22;41912;51.022;3.664;2023-08-30T00:00:36;15.60;99.90
56044;DHT22;41912;51.022;3.664;2023-08-30T00:03:02;15.60;99.90
56044;DHT22;41912;51.022;3.664;2023-08-30T00:05:27;15.60;99.90
56044;DHT22;41912;51.022;3.664;2023-08-30T00:07:54;15.60;99.90
56044;DHT22;41912;51.022;3.664;2023-08-30T00:10:19;15.60;99.90
56044;DHT22;41912;51.022;3.664;2023-08-30T00:12:45;15.60;99.90
56044;DHT22;41912;51.022;3.664;2023-08-30T00:15:11;15.50;99.90
56044;DHT22;41912;51.022;3.664;2023-08-30T00:17:36;15.50;99.90
56044;DHT22;41912;51.022;3.664;2023-08-30T00:20:02;15.50;99.90
56044;DHT22;41912;51.022;3.664;2023-08-30T00:22:28;15.50;99.90
56044;DHT22;41912;51.022;3.664;2023-08-30T00:24:54;15.50;99.90
56044;DHT22;41912;51.022;3.664;2023-08-30T00:27:19;15.50;99.90
56044;DHT22;41912;51.022;3.664;2023-08-30T00:29:48;15.50;99.90
56044;DHT22;41912;51.022;3.664;2023-08-30T00:32:13;15.50;99.90
56044;DHT22;41912;51.022;3.664;2023-08-30T00:34:39;15.40;99.90
56044;DHT22;41912;51.022;3.664;2023-08-30T00:37:05;15.40;99.90
56044;DHT22;41912;51.022;3.664;2023-08-30T00:39:30;15.40;99.90
56044;DHT22;41912;51.022;3.664;2023-08-30T00:41:56;15.40;99.90
56044;DHT22;41912;51.022;3.664;2023-08-30T00:44:22;15.40;99.90
56044;DHT22;41912;51.022;3.664;2023-08-30T00:46:48;15.30;99.90
56044;DHT22;41912;51.022;3.664;2023-08-30T00:49:14;15.30;99.90
56044;DHT22;41912;51.022;3.664;2023-08-30T00:51:40;15.30;99.90
56044;DHT22;41912;51.022;3.664;2023-08-30T00:54:06;15.30;99.90
56044;DHT22;41912;51.022;3.664;2023-08-30T00:56:32;15.30;99.90
56044;DHT22;41912;51.022;3.664;2023-08-30T00:58:59;15.30;99.90
56044;DHT22;41912;51.022;3.664;2023-08-30T01:01:25;15.20;99.90
56044;DHT22;41912;51.022;3.664;2023-08-30T01:03:51;15.30;99.90
56044;DHT22;41912;51.022;3.664;2023-08-30T01:06:16;15.30;99.90
56044;DHT22;41912;51.022;3.664;2023-08-30T01:08:43;15.20;99.90
56044;DHT22;41912;51.022;3.664;2023-08-30T01:13:55;15.20;99.90
56044;DHT22;41912;51.022;3.664;2023-08-30T01:16:21;15.20;99.90
56044;DHT22;41912;51.022;3.664;2023-08-30T01:18:51;15.20;99.90
56044;DHT22;41912;51.022;3.664;2023-08-30T01:21:32;15.20;99.90
56044;DHT22;41912;51.022;3.664;2023-08-30T01:24:00;15.20;99.90
56044;DHT22;41912;51.022;3.664;2023-08-30T01:29:32;15.30;99.90
56044;DHT22;41912;51.022;3.664;2023-08-30T01:31:58;15.30;99.90
56044;DHT22;41912;51.022;3.664;2023-08-30T01:34:25;15.30;99.90
56044;DHT22;41912;51.022;3.664;2023-08-30T01:36:51;15.30;99.90
56044;DHT22;41912;51.022;3.664;2023-08-30T01:39:17;15.30;99.90
56044;DHT22;41912;51.022;3.664;2023-08-30T01:41:43;15.40;99.90
56044;DHT22;41912;51.022;3.664;2023-08-30T01:44:10;15.40;99.90
56044;DHT22;41912;51.022;3.664;2023-08-30T01:46:37;15.40;99.90
56044;DHT22;41912;51.022;3.664;2023-08-30T01:49:04;15.40;99.90
56044;DHT22;41912;51.022;3.664;2023-08-30T01:51:32;15.40;99.90
56044;DHT22;41912;51.022;3.664;2023-08-30T01:53:58;15.40;99.90
56044;DHT22;41912;51.022;3.664;2023-08-30T01:56:24;15.40;99.90
56044;DHT22;41912;51.022;3.664;2023-08-30T01:58:50;15.40;99.90
56044;DHT22;41912;51.022;3.664;2023-08-30T02:01:15;15.40;99.90
56044;DHT22;41912;51.022;3.664;2023-08-30T02:03:43;15.40;99.90
56044;DHT22;41912;51.022;3.664;2023-08-30T02:06:15;15.40;99.90
56044;DHT22;41912;51.022;3.664;2023-08-30T02:08:50;15.40;99.90
56044;DHT22;41912;51.022;3.664;2023-08-30T02:11:21;15.50;99.90
56044;DHT22;41912;51.022;3.664;2023-08-30T02:13:48;15.40;99.90
56044;DHT22;41912;51.022;3.664;2023-08-30T02:16:17;15.40;99.90
56044;DHT22;41912;51.022;3.664;2023-08-30T02:18:43;15.40;99.90
56044;DHT22;41912;51.022;3.664;2023-08-30T02:21:10;15.50;99.90
56044;DHT22;41912;51.022;3.664;2023-08-30T02:23:36;15.50;99.90
56044;DHT22;41912;51.022;3.664;2023-08-30T02:26:02;15.50;99.90
56044;DHT22;41912;51.022;3.664;2023-08-30T02:28:31;15.50;99.90
56044;DHT22;41912;51.022;3.664;2023-08-30T02:30:57;15.50;99.90
56044;DHT22;41912;51.022;3.664;2023-08-30T02:33:22;15.50;99.90
56044;DHT22;41912;51.022;3.664;2023-08-30T02:35:48;15.50;99.90
56044;DHT22;41912;51.022;3.664;2023-08-30T02:38:14;15.50;99.90
56044;DHT22;41912;51.022;3.664;2023-08-30T02:40:39;15.50;99.90
56044;DHT22;41912;51.022;3.664;2023-08-30T02:43:05;15.50;99.90
56044;DHT22;41912;51.022;3.664;2023-08-30T02:45:31;15.60;99.90
56044;DHT22;41912;51.022;3.664;2023-08-30T02:47:56;15.60;99.90
56044;DHT22;41912;51.022;3.664;2023-08-30T02:50:23;15.60;99.90
56044;DHT22;41912;51.022;3.664;2023-08-30T02:52:48;15.60;99.90
56044;DHT22;41912;51.022;3.664;2023-08-30T02:55:14;15.60;99.90
56044;DHT22;41912;51.022;3.664;2023-08-30T02:57:40;15.60;99.90
56044;DHT22;41912;51.022;3.664;2023-08-30T03:00:06;15.60;99.90
56044;DHT22;41912;51.022;3.664;2023-08-30T03:02:32;15.60;99.90
56044;DHT22;41912;51.022;3.664;2023-08-30T03:05:01;15.70;99.90
56044;DHT22;41912;51.022;3.664;2023-08-30T03:07:28;15.70;99.90
56044;DHT22;41912;51.022;3.664;2023-08-30T03:09:54;15.70;99.90
56044;DHT22;41912;51.022;3.664;2023-08-30T03:12:20;15.70;99.90
56044;DHT22;41912;51.022;3.664;2023-08-30T03:14:46;15.70;99.90
56044;DHT22;41912;51.022;3.664;2023-08-30T03:17:12;15.70;99.90
56044;DHT22;41912;51.022;3.664;2023-08-30T03:19:37;15.80;99.90
56044;DHT22;41912;51.022;3.664;2023-08-30T03:22:03;15.80;99.90
56044;DHT22;41912;51.022;3.664;2023-08-30T03:24:29;15.80;99.90
56044;DHT22;41912;51.022;3.664;2023-08-30T03:26:54;15.80;99.90
56044;DHT22;41912;51.022;3.664;2023-08-30T03:29:20;15.80;99.90
56044;DHT22;41912;51.022;3.664;2023-08-30T03:31:46;15.80;99.90
56044;DHT22;41912;51.022;3.664;2023-08-30T03:34:11;15.80;99.90
56044;DHT22;41912;51.022;3.664;2023-08-30T03:36:37;15.80;99.90
56044;DHT22;41912;51.022;3.664;2023-08-30T03:39:03;15.80;99.90
56044;DHT22;41912;51.022;3.664;2023-08-30T03:41:29;15.80;99.90
56044;DHT22;41912;51.022;3.664;2023-08-30T03:43:55;15.80;99.90
56044;DHT22;41912;51.022;3.664;2023-08-30T03:46:20;15.80;99.90
56044;DHT22;41912;51.022;3.664;2023-08-30T03:48:46;15.80;99.90
56044;DHT22;41912;51.022;3.664;2023-08-30T03:51:12;15.80;99.90
56044;DHT22;41912;51.022;3.664;2023-08-30T03:53:38;15.80;99.90
56044;DHT22;41912;51.022;3.664;2023-08-30T03:56:04;15.80;99.90
56044;DHT22;41912;51.022;3.664;2023-08-30T03:58:29;15.80;99.90
56044;DHT22;41912;51.022;3.664;2023-08-30T04:00:56;15.90;99.90
56044;DHT22;41912;51.022;3.664;2023-08-30T04:03:23;15.80;99.90
56044;DHT22;41912;51.022;3.664;2023-08-30T04:05:57;15.90;99.90
56044;DHT22;41912;51.022;3.664;2023-08-30T04:08:23;15.90;99.90
56044;DHT22;41912;51.022;3.664;2023-08-30T04:10:52;15.90;99.90
56044;DHT22;41912;51.022;3.664;2023-08-30T04:13:18;15.90;99.90
56044;DHT22;41912;51.022;3.664;2023-08-30T04:15:43;15.90;99.90
56044;DHT22;41912;51.022;3.664;2023-08-30T04:18:09;15.90;99.90
56044;DHT22;41912;51.022;3.664;2023-08-30T04:20:35;15.90;99.90
56044;DHT22;41912;51.022;3.664;2023-08-30T04:23:01;15.90;99.90
56044;DHT22;41912;51.022;3.664;2023-08-30T04:25:28;15.90;99.90
56044;DHT22;41912;51.022;3.664;2023-08-30T04:27:54;15.90;99.90
56044;DHT22;41912;51.022;3.664;2023-08-30T04:30:19;15.90;99.90
56044;DHT22;41912;51.022;3.664;2023-08-30T04:32:45;15.90;99.90
56044;DHT22;41912;51.022;3.664;2023-08-30T04:35:11;15.90;99.90
56044;DHT22;41912;51.022;3.664;2023-08-30T04:37:36;15.90;99.90
56044;DHT22;41912;51.022;3.664;2023-08-30T04:40:08;16.00;99.90
56044;DHT22;41912;51.022;3.664;2023-08-30T04:42:34;16.00;99.90
56044;DHT22;41912;51.022;3.664;2023-08-30T04:45:01;16.00;99.90
56044;DHT22;41912;51.022;3.664;2023-08-30T04:47:29;16.00;99.90
56044;DHT22;41912;51.022;3.664;2023-08-30T04:49:54;16.00;99.90
56044;DHT22;41912;51.022;3.664;2023-08-30T04:52:20;16.00;99.90
56044;DHT22;41912;51.022;3.664;2023-08-30T04:54:46;15.90;99.90
56044;DHT22;41912;51.022;3.664;2023-08-30T04:57:12;16.00;99.90
56044;DHT22;41912;51.022;3.664;2023-08-30T04:59:42;16.00;99.90
56044;DHT22;41912;51.022;3.664;2023-08-30T05:02:08;16.00;99.90
56044;DHT22;41912;51.022;3.664;2023-08-30T05:04:33;16.00;99.90
56044;DHT22;41912;51.022;3.664;2023-08-30T05:06:59;16.00;99.90
56044;DHT22;41912;51.022;3.664;2023-08-30T05:09:25;16.00;99.90
56044;DHT22;41912;51.022;3.664;2023-08-30T05:11:51;16.00;99.90
56044;DHT22;41912;51.022;3.664;2023-08-30T05:14:17;16.00;99.90
56044;DHT22;41912;51.022;3.664;2023-08-30T05:16:43;16.00;99.90
56044;DHT22;41912;51.022;3.664;2023-08-30T05:19:08;16.10;99.90
56044;DHT22;41912;51.022;3.664;2023-08-30T05:21:34;16.10;99.90
56044;DHT22;41912;51.022;3.664;2023-08-30T05:24:00;16.10;99.90
56044;DHT22;41912;51.022;3.664;2023-08-30T05:26:25;16.10;99.90
56044;DHT22;41912;51.022;3.664;2023-08-30T05:28:51;16.10;99.90
56044;DHT22;41912;51.022;3.664;2023-08-30T05:31:17;16.10;99.90
56044;DHT22;41912;51.022;3.664;2023-08-30T05:33:43;16.10;99.90
56044;DHT22;41912;51.022;3.664;2023-08-30T05:36:08;16.10;99.90
56044;DHT22;41912;51.022;3.664;2023-08-30T05:38:34;16.10;99.90
56044;DHT22;41912;51.022;3.664;2023-08-30T05:41:00;16.10;99.90
56044;DHT22;41912;51.022;3.664;2023-08-30T05:43:25;16.10;99.90
56044;DHT22;41912;51.022;3.664;2023-08-30T05:45:51;16.10;99.90
56044;DHT22;41912;51.022;3.664;2023-08-30T05:48:16;16.10;99.90
56044;DHT22;41912;51.022;3.664;2023-08-30T05:50:42;16.10;99.90
56044;DHT22;41912;51.022;3.664;2023-08-30T05:53:08;16.10;99.90
56044;DHT22;41912;51.022;3.664;2023-08-30T05:55:33;16.10;99.90
56044;DHT22;41912;51.022;3.664;2023-08-30T05:57:59;16.10;99.90
56044;DHT22;41912;51.022;3.664;2023-08-30T06:00:25;16.20;99.90
56044;DHT22;41912;51.022;3.664;2023-08-30T06:02:51;16.20;99.90
56044;DHT22;41912;51.022;3.664;2023-08-30T06:05:17;16.20;99.90
56044;DHT22;41912;51.022;3.664;2023-08-30T06:07:43;16.20;99.90
56044;DHT22;41912;51.022;3.664;2023-08-30T06:10:10;16.20;99.90
56044;DHT22;41912;51.022;3.664;2023-08-30T06:12:35;16.20;99.90
56044;DHT22;41912;51.022;3.664;2023-08-30T06:15:01;16.30;99.90
56044;DHT22;41912;51.022;3.664;2023-08-30T06:17:27;16.30;99.90
56044;DHT22;41912;51.022;3.664;2023-08-30T06:19:52;16.30;99.90
56044;DHT22;41912;51.022;3.664;2023-08-30T06:22:18;16.30;99.90
56044;DHT22;41912;51.022;3.664;2023-08-30T06:24:44;16.30;99.90
56044;DHT22;41912;51.022;3.664;2023-08-30T06:27:09;16.30;99.90
56044;DHT22;41912;51.022;3.664;2023-08-30T06:29:35;16.30;99.90
56044;DHT22;41912;51.022;3.664;2023-08-30T06:32:00;16.30;99.90
56044;DHT22;41912;51.022;3.664;2023-08-30T06:34:26;16.40;99.90
56044;DHT22;41912;51.022;3.664;2023-08-30T06:36:52;16.40;99.90
56044;DHT22;41912;51.022;3.664;2023-08-30T06:39:17;16.40;99.90
56044;DHT22;41912;51.022;3.664;2023-08-30T06:41:43;16.40;99.90
56044;DHT22;41912;51.022;3.664;2023-08-30T06:44:09;16.40;99.90
56044;DHT22;41912;51.022;3.664;2023-08-30T06:46:34;16.40;99.90
56044;DHT22;41912;51.022;3.664;2023-08-30T06:49:00;16.40;99.90
56044;DHT22;41912;51.022;3.664;2023-08-30T06:51:26;16.40;99.90
56044;DHT22;41912;51.022;3.664;2023-08-30T06:53:51;16.40;99.90
56044;DHT22;41912;51.022;3.664;2023-08-30T06:56:17;16.40;99.90
56044;DHT22;41912;51.022;3.664;2023-08-30T06:58:42;16.40;99.90
56044;DHT22;41912;51.022;3.664;2023-08-30T07:01:08;16.40;99.90
56044;DHT22;41912;51.022;3.664;2023-08-30T07:03:34;16.50;99.90
56044;DHT22;41912;51.022;3.664;2023-08-30T07:05:59;16.50;99.90
56044;DHT22;41912;51.022;3.664;2023-08-30T07:08:25;16.50;99.90
56044;DHT22;41912;51.022;3.664;2023-08-30T07:10:52;16.50;99.90
56044;DHT22;41912;51.022;3.664;2023-08-30T07:13:18;16.50;99.90
56044;DHT22;41912;51.022;3.664;2023-08-30T07:15:43;16.50;99.90
56044;DHT22;41912;51.022;3.664;2023-08-30T07:18:09;16.50;99.90
56044;DHT22;41912;51.022;3.664;2023-08-30T07:20:35;16.50;99.90
56044;DHT22;41912;51.022;3.664;2023-08-30T07:23:02;16.60;99.90
56044;DHT22;41912;51.022;3.664;2023-08-30T07:25:29;16.60;99.90
56044;DHT22;41912;51.022;3.664;2023-08-30T07:27:56;16.70;99.90
56044;DHT22;41912;51.022;3.664;2023-08-30T07:30:22;16.70;99.90
56044;DHT22;41912;51.022;3.664;2023-08-30T07:32:48;16.80;99.90
56044;DHT22;41912;51.022;3.664;2023-08-30T07:35:13;16.90;99.90
56044;DHT22;41912;51.022;3.664;2023-08-30T07:37:39;16.90;99.90
56044;DHT22;41912;51.022;3.664;2023-08-30T07:40:05;17.00;99.90
56044;DHT22;41912;51.022;3.664;2023-08-30T07:42:31;17.00;99.90
56044;DHT22;41912;51.022;3.664;2023-08-30T07:44:56;17.10;99.90
56044;DHT22;41912;51.022;3.664;2023-08-30T07:47:22;17.10;99.90
56044;DHT22;41912;51.022;3.664;2023-08-30T07:49:48;17.10;99.90
56044;DHT22;41912;51.022;3.664;2023-08-30T07:52:13;17.10;99.90
56044;DHT22;41912;51.022;3.664;2023-08-30T07:54:40;17.10;99.90
56044;DHT22;41912;51.022;3.664;2023-08-30T07:57:06;17.40;99.90
56044;DHT22;41912;51.022;3.664;2023-08-30T07:59:36;17.20;99.90
56044;DHT22;41912;51.022;3.664;2023-08-30T08:02:03;17.20;99.90
56044;DHT22;41912;51.022;3.664;2023-08-30T08:04:29;17.30;99.90
56044;DHT22;41912;51.022;3.664;2023-08-30T08:06:54;17.30;99.90
56044;DHT22;41912;51.022;3.664;2023-08-30T08:09:20;17.40;99.90
56044;DHT22;41912;51.022;3.664;2023-08-30T08:11:50;17.40;99.90
56044;DHT22;41912;51.022;3.664;2023-08-30T08:14:16;17.50;99.90
56044;DHT22;41912;51.022;3.664;2023-08-30T08:16:41;17.50;99.90
56044;DHT22;41912;51.022;3.664;2023-08-30T08:19:07;17.50;99.90
56044;DHT22;41912;51.022;3.664;2023-08-30T08:21:34;17.40;99.90
56044;DHT22;41912;51.022;3.664;2023-08-30T08:23:59;17.50;99.90
56044;DHT22;41912;51.022;3.664;2023-08-30T08:26:25;17.50;99.90
56044;DHT22;41912;51.022;3.664;2023-08-30T08:28:51;17.50;99.90
56044;DHT22;41912;51.022;3.664;2023-08-30T08:31:17;17.50;99.90
56044;DHT22;41912;51.022;3.664;2023-08-30T08:33:43;17.60;99.90
56044;DHT22;41912;51.022;3.664;2023-08-30T08:36:09;17.60;99.90
56044;DHT22;41912;51.022;3.664;2023-08-30T08:38:35;17.60;99.90
56044;DHT22;41912;51.022;3.664;2023-08-30T08:41:05;17.70;99.90
56044;DHT22;41912;51.022;3.664;2023-08-30T08:43:32;17.80;99.90
56044;DHT22;41912;51.022;3.664;2023-08-30T08:46:02;17.80;99.90
56044;DHT22;41912;51.022;3.664;2023-08-30T08:48:29;17.90;99.90
56044;DHT22;41912;51.022;3.664;2023-08-30T08:50:57;17.90;99.90
56044;DHT22;41912;51.022;3.664;2023-08-30T08:53:23;18.00;99.90
56044;DHT22;41912;51.022;3.664;2023-08-30T08:55:50;18.00;99.90
56044;DHT22;41912;51.022;3.664;2023-08-30T08:58:24;18.10;99.90
56044;DHT22;41912;51.022;3.664;2023-08-30T09:00:51;18.20;99.90
56044;DHT22;41912;51.022;3.664;2023-08-30T09:03:18;18.20;99.90
56044;DHT22;41912;51.022;3.664;2023-08-30T09:05:45;18.30;99.90
56044;DHT22;41912;51.022;3.664;2023-08-30T09:08:12;18.30;99.90
56044;DHT22;41912;51.022;3.664;2023-08-30T09:10:39;18.40;99.90
56044;DHT22;41912;51.022;3.664;2023-08-30T09:13:05;18.50;99.90
56044;DHT22;41912;51.022;3.664;2023-08-30T09:15:35;18.50;99.90
56044;DHT22;41912;51.022;3.664;2023-08-30T09:18:02;18.60;99.90
56044;DHT22;41912;51.022;3.664;2023-08-30T09:20:28;18.60;99.90
56044;DHT22;41912;51.022;3.664;2023-08-30T09:22:54;18.60;99.90
56044;DHT22;41912;51.022;3.664;2023-08-30T09:25:24;18.60;99.90
56044;DHT22;41912;51.022;3.664;2023-08-30T09:27:51;18.60;99.90
56044;DHT22;41912;51.022;3.664;2023-08-30T09:30:22;18.60;99.90
56044;DHT22;41912;51.022;3.664;2023-08-30T09:32:48;18.50;99.90
56044;DHT22;41912;51.022;3.664;2023-08-30T09:35:14;18.50;99.90
56044;DHT22;41912;51.022;3.664;2023-08-30T09:37:40;18.60;99.90
56044;DHT22;41912;51.022;3.664;2023-08-30T09:40:06;18.70;99.90
56044;DHT22;41912;51.022;3.664;2023-08-30T09:42:32;18.80;99.90
56044;DHT22;41912;51.022;3.664;2023-08-30T09:44:58;18.90;99.90
56044;DHT22;41912;51.022;3.664;2023-08-30T09:47:26;18.90;99.90
56044;DHT22;41912;51.022;3.664;2023-08-30T09:49:54;18.90;99.90
56044;DHT22;41912;51.022;3.664;2023-08-30T09:52:25;18.90;99.90
56044;DHT22;41912;51.022;3.664;2023-08-30T09:54:52;19.00;99.90
56044;DHT22;41912;51.022;3.664;2023-08-30T09:57:19;19.10;99.90
56044;DHT22;41912;51.022;3.664;2023-08-30T09:59:45;19.20;99.90
56044;DHT22;41912;51.022;3.664;2023-08-30T10:02:11;19.20;99.90
56044;DHT22;41912;51.022;3.664;2023-08-30T10:04:40;19.20;99.90
56044;DHT22;41912;51.022;3.664;2023-08-30T10:07:06;19.20;99.80
56044;DHT22;41912;51.022;3.664;2023-08-30T10:09:32;19.30;99.90
56044;DHT22;41912;51.022;3.664;2023-08-30T10:11:58;19.30;98.60
56044;DHT22;41912;51.022;3.664;2023-08-30T10:14:27;19.40;98.60
56044;DHT22;41912;51.022;3.664;2023-08-30T10:17:03;19.50;97.60
56044;DHT22;41912;51.022;3.664;2023-08-30T10:19:29;19.50;95.80
56044;DHT22;41912;51.022;3.664;2023-08-30T10:22:02;19.60;95.70
56044;DHT22;41912;51.022;3.664;2023-08-30T10:24:39;19.60;96.10
56044;DHT22;41912;51.022;3.664;2023-08-30T10:27:06;19.70;96.30
56044;DHT22;41912;51.022;3.664;2023-08-30T10:29:34;19.70;96.80
56044;DHT22;41912;51.022;3.664;2023-08-30T10:32:06;19.80;96.40
56044;DHT22;41912;51.022;3.664;2023-08-30T10:34:36;19.90;96.40
56044;DHT22;41912;51.022;3.664;2023-08-30T10:37:09;19.90;96.20
56044;DHT22;41912;51.022;3.664;2023-08-30T10:39:39;19.90;95.30
56044;DHT22;41912;51.022;3.664;2023-08-30T10:42:10;20.00;94.50
56044;DHT22;41912;51.022;3.664;2023-08-30T10:47:34;20.10;94.30
56044;DHT22;41912;51.022;3.664;2023-08-30T10:50:05;20.10;93.60
56044;DHT22;41912;51.022;3.664;2023-08-30T10:52:32;20.10;94.30
56044;DHT22;41912;51.022;3.664;2023-08-30T10:55:10;20.20;94.90
56044;DHT22;41912;51.022;3.664;2023-08-30T10:57:37;20.30;94.50
56044;DHT22;41912;51.022;3.664;2023-08-30T11:00:18;20.20;94.10
56044;DHT22;41912;51.022;3.664;2023-08-30T11:02:51;20.50;94.60
56044;DHT22;41912;51.022;3.664;2023-08-30T11:05:18;20.60;94.30
56044;DHT22;41912;51.022;3.664;2023-08-30T11:07:45;20.60;94.90
56044;DHT22;41912;51.022;3.664;2023-08-30T11:10:11;20.70;95.00
56044;DHT22;41912;51.022;3.664;2023-08-30T11:12:43;20.70;94.20
56044;DHT22;41912;51.022;3.664;2023-08-30T11:15:10;20.80;94.40
56044;DHT22;41912;51.022;3.664;2023-08-30T11:17:36;20.80;94.40
56044;DHT22;41912;51.022;3.664;2023-08-30T11:20:07;20.80;94.80
56044;DHT22;41912;51.022;3.664;2023-08-30T11:22:39;20.70;94.10
56044;DHT22;41912;51.022;3.664;2023-08-30T11:25:05;20.60;94.00
56044;DHT22;41912;51.022;3.664;2023-08-30T11:27:31;20.70;94.30
56044;DHT22;41912;51.022;3.664;2023-08-30T11:30:01;20.80;94.30
56044;DHT22;41912;51.022;3.664;2023-08-30T11:32:41;20.90;94.20
56044;DHT22;41912;51.022;3.664;2023-08-30T11:35:10;20.90;93.70
56044;DHT22;41912;51.022;3.664;2023-08-30T11:37:36;20.80;94.10
56044;DHT22;41912;51.022;3.664;2023-08-30T11:40:03;20.70;93.20
56044;DHT22;41912;51.022;3.664;2023-08-30T11:42:30;20.70;93.90
56044;DHT22;41912;51.022;3.664;2023-08-30T11:44:58;20.70;93.80
56044;DHT22;41912;51.022;3.664;2023-08-30T11:47:25;20.70;94.40
56044;DHT22;41912;51.022;3.664;2023-08-30T11:49:56;20.60;94.00
56044;DHT22;41912;51.022;3.664;2023-08-30T11:52:23;20.70;93.80
56044;DHT22;41912;51.022;3.664;2023-08-30T11:54:50;20.80;94.80
56044;DHT22;41912;51.022;3.664;2023-08-30T11:57:16;20.80;93.80
56044;DHT22;41912;51.022;3.664;2023-08-30T11:59:42;20.70;93.10
56044;DHT22;41912;51.022;3.664;2023-08-30T12:02:08;20.80;93.10
56044;DHT22;41912;51.022;3.664;2023-08-30T12:04:41;20.80;93.30
56044;DHT22;41912;51.022;3.664;2023-08-30T12:07:07;21.00;93.20
56044;DHT22;41912;51.022;3.664;2023-08-30T12:09:33;21.10;93.60
56044;DHT22;41912;51.022;3.664;2023-08-30T12:12:10;21.20;92.90
56044;DHT22;41912;51.022;3.664;2023-08-30T12:14:36;21.30;92.90
56044;DHT22;41912;51.022;3.664;2023-08-30T12:17:02;21.20;94.00
56044;DHT22;41912;51.022;3.664;2023-08-30T12:19:29;21.20;93.60
56044;DHT22;41912;51.022;3.664;2023-08-30T12:21:54;21.00;92.90
56044;DHT22;41912;51.022;3.664;2023-08-30T12:24:20;21.00;93.10
56044;DHT22;41912;51.022;3.664;2023-08-30T12:26:48;20.90;93.70
56044;DHT22;41912;51.022;3.664;2023-08-30T12:29:13;20.90;93.70
56044;DHT22;41912;51.022;3.664;2023-08-30T12:31:39;20.90;94.10
56044;DHT22;41912;51.022;3.664;2023-08-30T12:34:05;21.00;94.90
56044;DHT22;41912;51.022;3.664;2023-08-30T12:36:30;21.20;95.00
56044;DHT22;41912;51.022;3.664;2023-08-30T12:38:57;21.10;93.60
56044;DHT22;41912;51.022;3.664;2023-08-30T12:41:22;21.10;94.30
56044;DHT22;41912;51.022;3.664;2023-08-30T12:43:49;21.20;94.50
56044;DHT22;41912;51.022;3.664;2023-08-30T12:46:15;21.30;94.50
56044;DHT22;41912;51.022;3.664;2023-08-30T12:48:41;21.20;93.70
56044;DHT22;41912;51.022;3.664;2023-08-30T12:51:07;21.10;93.10
56044;DHT22;41912;51.022;3.664;2023-08-30T12:53:32;21.10;93.80
56044;DHT22;41912;51.022;3.664;2023-08-30T12:55:58;21.00;93.80
56044;DHT22;41912;51.022;3.664;2023-08-30T12:58:23;20.90;94.60
56044;DHT22;41912;51.022;3.664;2023-08-30T13:00:49;20.90;93.90
56044;DHT22;41912;51.022;3.664;2023-08-30T13:03:15;20.80;93.70
56044;DHT22;41912;51.022;3.664;2023-08-30T13:05:41;20.80;93.20
56044;DHT22;41912;51.022;3.664;2023-08-30T13:08:07;20.80;93.00
56044;DHT22;41912;51.022;3.664;2023-08-30T13:10:32;20.70;93.00
56044;DHT22;41912;51.022;3.664;2023-08-30T13:12:58;20.80;93.10
56044;DHT22;41912;51.022;3.664;2023-08-30T13:15:24;20.90;93.50
56044;DHT22;41912;51.022;3.664;2023-08-30T13:17:49;21.00;93.40
56044;DHT22;41912;51.022;3.664;2023-08-30T13:20:16;21.00;91.80
56044;DHT22;41912;51.022;3.664;2023-08-30T13:22:41;21.10;91.90
56044;DHT22;41912;51.022;3.664;2023-08-30T13:25:07;21.10;92.10
56044;DHT22;41912;51.022;3.664;2023-08-30T13:27:34;21.20;92.40
56044;DHT22;41912;51.022;3.664;2023-08-30T13:29:59;21.30;91.70
56044;DHT22;41912;51.022;3.664;2023-08-30T13:32:25;21.40;92.60
56044;DHT22;41912;51.022;3.664;2023-08-30T13:34:51;21.40;92.70
56044;DHT22;41912;51.022;3.664;2023-08-30T13:37:16;21.50;91.60
56044;DHT22;41912;51.022;3.664;2023-08-30T13:39:43;21.50;91.70
56044;DHT22;41912;51.022;3.664;2023-08-30T13:42:08;21.60;91.70
56044;DHT22;41912;51.022;3.664;2023-08-30T13:44:35;21.80;92.10
56044;DHT22;41912;51.022;3.664;2023-08-30T13:47:03;21.90;92.70
56044;DHT22;41912;51.022;3.664;2023-08-30T13:49:29;22.00;91.80
56044;DHT22;41912;51.022;3.664;2023-08-30T13:51:55;22.10;92.70
56044;DHT22;41912;51.022;3.664;2023-08-30T13:54:21;22.20;92.50
56044;DHT22;41912;51.022;3.664;2023-08-30T13:56:46;22.10;91.00
56044;DHT22;41912;51.022;3.664;2023-08-30T13:59:12;22.10;91.50
56044;DHT22;41912;51.022;3.664;2023-08-30T14:01:37;22.10;91.70
56044;DHT22;41912;51.022;3.664;2023-08-30T14:04:03;22.00;90.90
56044;DHT22;41912;51.022;3.664;2023-08-30T14:06:30;22.00;91.30
56044;DHT22;41912;51.022;3.664;2023-08-30T14:08:56;21.90;91.30
56044;DHT22;41912;51.022;3.664;2023-08-30T14:11:22;21.90;91.70
56044;DHT22;41912;51.022;3.664;2023-08-30T14:13:48;22.00;91.70
56044;DHT22;41912;51.022;3.664;2023-08-30T14:16:13;22.00;91.30
56044;DHT22;41912;51.022;3.664;2023-08-30T14:18:39;21.90;90.70
56044;DHT22;41912;51.022;3.664;2023-08-30T14:21:05;21.90;91.10
56044;DHT22;41912;51.022;3.664;2023-08-30T14:23:31;21.90;91.40
56044;DHT22;41912;51.022;3.664;2023-08-30T14:26:01;21.90;90.40
56044;DHT22;41912;51.022;3.664;2023-08-30T14:28:29;21.80;90.10
56044;DHT22;41912;51.022;3.664;2023-08-30T14:30:54;21.90;90.90
56044;DHT22;41912;51.022;3.664;2023-08-30T14:33:20;22.00;90.90
56044;DHT22;41912;51.022;3.664;2023-08-30T14:35:46;22.10;89.20
56044;DHT22;41912;51.022;3.664;2023-08-30T14:38:12;22.20;90.40
56044;DHT22;41912;51.022;3.664;2023-08-30T14:40:37;22.30;90.60
56044;DHT22;41912;51.022;3.664;2023-08-30T14:43:04;22.50;89.00
56044;DHT22;41912;51.022;3.664;2023-08-30T14:45:30;22.60;90.60
56044;DHT22;41912;51.022;3.664;2023-08-30T14:47:56;22.50;90.20
56044;DHT22;41912;51.022;3.664;2023-08-30T14:50:21;22.50;90.10
56044;DHT22;41912;51.022;3.664;2023-08-30T14:52:47;22.40;89.20
56044;DHT22;41912;51.022;3.664;2023-08-30T14:55:13;22.40;90.00
56044;DHT22;41912;51.022;3.664;2023-08-30T14:57:38;22.20;88.90
56044;DHT22;41912;51.022;3.664;2023-08-30T15:00:05;22.10;90.10
56044;DHT22;41912;51.022;3.664;2023-08-30T15:02:31;22.10;90.60
56044;DHT22;41912;51.022;3.664;2023-08-30T15:04:57;21.90;91.10
56044;DHT22;41912;51.022;3.664;2023-08-30T15:07:23;21.90;91.60
56044;DHT22;41912;51.022;3.664;2023-08-30T15:09:49;21.90;91.70
56044;DHT22;41912;51.022;3.664;2023-08-30T15:12:15;21.90;92.10
56044;DHT22;41912;51.022;3.664;2023-08-30T15:14:41;21.90;92.20
56044;DHT22;41912;51.022;3.664;2023-08-30T15:17:08;21.90;92.10
56044;DHT22;41912;51.022;3.664;2023-08-30T15:19:35;21.80;91.20
56044;DHT22;41912;51.022;3.664;2023-08-30T15:22:01;21.80;91.70
56044;DHT22;41912;51.022;3.664;2023-08-30T15:24:27;21.70;91.10
56044;DHT22;41912;51.022;3.664;2023-08-30T15:26:52;21.70;91.70
56044;DHT22;41912;51.022;3.664;2023-08-30T15:29:18;21.70;92.20
56044;DHT22;41912;51.022;3.664;2023-08-30T15:31:43;21.70;92.30
56044;DHT22;41912;51.022;3.664;2023-08-30T15:34:10;21.70;91.50